sensor_id;sensor_type;location;lat;lon;timestamp;pressure;altitude;pressure_sealevel;temperature;humidity
76229;BME280;65021;53.174;18.160;2023-04-09T00:00:41;102074.05;;;5.83;79.20
76229;BME280;65021;53.174;18.160;2023-04-09T00:03:27;102073.31;;;5.88;79.19
76229;BME280;65021;53.174;18.160;2023-04-09T00:05:53;102066.02;;;5.90;78.97
76229;BME280;65021;53.174;18.160;2023-04-09T00:08:20;102060.26;;;5.91;79.42
76229;BME280;65021;53.174;18.160;2023-04-09T00:10:52;102056.29;;;5.92;79.62
76229;BME280;65021;53.174;18.160;2023-04-09T00:13:19;102056.35;;;5.93;79.25
76229;BME280;65021;53.174;18.160;2023-04-09T00:15:45;102056.12;;;5.91;79.05
76229;BME280;65021;53.174;18.160;2023-04-09T00:18:12;102056.15;;;5.91;78.82
76229;BME280;65021;53.174;18.160;2023-04-09T00:20:39;102055.36;;;5.92;79.16
76229;BME280;65021;53.174;18.160;2023-04-09T00:23:05;102062.24;;;5.92;79.06
76229;BME280;65021;53.174;18.160;2023-04-09T00:25:31;102059.96;;;5.93;79.34
76229;BME280;65021;53.174;18.160;2023-04-09T00:27:57;102056.67;;;5.95;79.45
76229;BME280;65021;53.174;18.160;2023-04-09T00:30:23;102059.04;;;5.93;79.42
76229;BME280;65021;53.174;18.160;2023-04-09T00:32:49;102060.66;;;5.94;79.18
76229;BME280;65021;53.174;18.160;2023-04-09T00:35:15;102067.00;;;5.93;78.94
76229;BME280;65021;53.174;18.160;2023-04-09T00:37:45;102069.10;;;5.92;79.03
76229;BME280;65021;53.174;18.160;2023-04-09T00:40:11;102074.85;;;5.90;79.11
76229;BME280;65021;53.174;18.160;2023-04-09T00:42:37;102077.70;;;5.88;79.38
76229;BME280;65021;53.174;18.160;2023-04-09T00:45:04;102077.89;;;5.85;79.18
76229;BME280;65021;53.174;18.160;2023-04-09T00:47:31;102079.48;;;5.81;79.25
76229;BME280;65021;53.174;18.160;2023-04-09T00:49:59;102077.36;;;5.77;79.10
76229;BME280;65021;53.174;18.160;2023-04-09T00:52:26;102080.36;;;5.72;79.11
76229;BME280;65021;53.174;18.160;2023-04-09T00:54:53;102080.60;;;5.67;79.09
76229;BME280;65021;53.174;18.160;2023-04-09T00:57:19;102075.10;;;5.61;79.15
76229;BME280;65021;53.174;18.160;2023-04-09T00:59:45;102074.00;;;5.53;79.90
76229;BME280;65021;53.174;18.160;2023-04-09T01:02:11;102074.73;;;5.47;80.52
76229;BME280;65021;53.174;18.160;2023-04-09T01:04:39;102073.61;;;5.43;80.42
76229;BME280;65021;53.174;18.160;2023-04-09T01:09:53;102087.85;;;5.36;80.27
76229;BME280;65021;53.174;18.160;2023-04-09T01:12:47;102092.84;;;5.32;80.43
76229;BME280;65021;53.174;18.160;2023-04-09T01:15:21;102092.08;;;5.31;80.13
76229;BME280;65021;53.174;18.160;2023-04-09T01:18:11;102099.74;;;5.30;80.21
76229;BME280;65021;53.174;18.160;2023-04-09T01:26:05;102104.44;;;5.27;79.82
76229;BME280;65021;53.174;18.160;2023-04-09T01:28:34;102101.76;;;5.25;80.03
76229;BME280;65021;53.174;18.160;2023-04-09T01:31:12;102098.01;;;5.23;80.18
76229;BME280;65021;53.174;18.160;2023-04-09T01:33:42;102097.75;;;5.20;80.30
76229;BME280;65021;53.174;18.160;2023-04-09T01:36:09;102093.92;;;5.18;81.22
76229;BME280;65021;53.174;18.160;2023-04-09T01:38:38;102094.15;;;5.17;80.60
76229;BME280;65021;53.174;18.160;2023-04-09T01:41:05;102097.32;;;5.15;80.69
76229;BME280;65021;53.174;18.160;2023-04-09T01:43:33;102098.75;;;5.12;80.43
76229;BME280;65021;53.174;18.160;2023-04-09T01:46:00;102098.07;;;5.08;81.09
76229;BME280;65021;53.174;18.160;2023-04-09T01:48:28;102098.20;;;5.04;81.38
76229;BME280;65021;53.174;18.160;2023-04-09T01:50:57;102096.61;;;5.00;81.44
76229;BME280;65021;53.174;18.160;2023-04-09T01:53:23;102094.35;;;4.96;81.01
76229;BME280;65021;53.174;18.160;2023-04-09T01:55:54;102094.89;;;4.92;81.11
76229;BME280;65021;53.174;18.160;2023-04-09T01:58:23;102100.17;;;4.87;81.02
76229;BME280;65021;53.174;18.160;2023-04-09T02:00:50;102106.80;;;4.83;81.48
76229;BME280;65021;53.174;18.160;2023-04-09T02:03:29;102106.04;;;4.78;82.07
76229;BME280;65021;53.174;18.160;2023-04-09T02:06:06;102107.55;;;4.75;81.88
76229;BME280;65021;53.174;18.160;2023-04-09T02:08:34;102107.59;;;4.73;81.73
76229;BME280;65021;53.174;18.160;2023-04-09T02:11:03;102103.48;;;4.70;81.91
76229;BME280;65021;53.174;18.160;2023-04-09T02:13:31;102100.71;;;4.65;82.20
76229;BME280;65021;53.174;18.160;2023-04-09T02:16:00;102102.54;;;4.62;81.62
76229;BME280;65021;53.174;18.160;2023-04-09T02:18:28;102102.58;;;4.60;81.47
76229;BME280;65021;53.174;18.160;2023-04-09T02:20:56;102102.89;;;4.57;82.54
76229;BME280;65021;53.174;18.160;2023-04-09T02:23:24;102102.36;;;4.53;83.27
76229;BME280;65021;53.174;18.160;2023-04-09T02:25:51;102100.54;;;4.48;82.98
76229;BME280;65021;53.174;18.160;2023-04-09T02:28:18;102102.02;;;4.44;82.85
76229;BME280;65021;53.174;18.160;2023-04-09T02:30:44;102099.95;;;4.40;82.83
76229;BME280;65021;53.174;18.160;2023-04-09T02:33:10;102099.30;;;4.38;82.98
76229;BME280;65021;53.174;18.160;2023-04-09T02:35:36;102098.30;;;4.37;83.60
76229;BME280;65021;53.174;18.160;2023-04-09T02:38:02;102101.44;;;4.35;84.18
76229;BME280;65021;53.174;18.160;2023-04-09T02:40:28;102103.75;;;4.33;83.77
76229;BME280;65021;53.174;18.160;2023-04-09T02:42:54;102106.67;;;4.33;84.31
76229;BME280;65021;53.174;18.160;2023-04-09T02:45:20;102103.08;;;4.32;83.98
76229;BME280;65021;53.174;18.160;2023-04-09T02:47:46;102105.48;;;4.32;84.21
76229;BME280;65021;53.174;18.160;2023-04-09T02:50:12;102100.41;;;4.33;83.84
76229;BME280;65021;53.174;18.160;2023-04-09T02:52:38;102097.83;;;4.33;84.57
76229;BME280;65021;53.174;18.160;2023-04-09T02:55:04;102093.47;;;4.33;84.14
76229;BME280;65021;53.174;18.160;2023-04-09T02:57:30;102099.66;;;4.33;84.61
76229;BME280;65021;53.174;18.160;2023-04-09T02:59:58;102097.77;;;4.35;84.61
76229;BME280;65021;53.174;18.160;2023-04-09T03:02:24;102099.07;;;4.37;85.21
76229;BME280;65021;53.174;18.160;2023-04-09T03:04:50;102095.28;;;4.38;84.64
76229;BME280;65021;53.174;18.160;2023-04-09T03:07:17;102096.70;;;4.40;84.02
76229;BME280;65021;53.174;18.160;2023-04-09T03:09:43;102090.50;;;4.41;84.11
76229;BME280;65021;53.174;18.160;2023-04-09T03:12:09;102091.36;;;4.43;84.47
76229;BME280;65021;53.174;18.160;2023-04-09T03:14:35;102089.02;;;4.43;84.97
76229;BME280;65021;53.174;18.160;2023-04-09T03:17:01;102081.98;;;4.43;84.85
76229;BME280;65021;53.174;18.160;2023-04-09T03:19:27;102080.89;;;4.44;85.26
76229;BME280;65021;53.174;18.160;2023-04-09T03:21:53;102081.23;;;4.45;84.71
76229;BME280;65021;53.174;18.160;2023-04-09T03:24:18;102078.87;;;4.46;84.56
76229;BME280;65021;53.174;18.160;2023-04-09T03:26:45;102078.71;;;4.47;84.42
76229;BME280;65021;53.174;18.160;2023-04-09T03:29:11;102073.77;;;4.49;84.42
76229;BME280;65021;53.174;18.160;2023-04-09T03:31:37;102072.22;;;4.50;85.01
76229;BME280;65021;53.174;18.160;2023-04-09T03:34:03;102071.11;;;4.50;84.57
76229;BME280;65021;53.174;18.160;2023-04-09T03:36:28;102075.31;;;4.52;84.34
76229;BME280;65021;53.174;18.160;2023-04-09T03:38:56;102073.03;;;4.52;84.27
76229;BME280;65021;53.174;18.160;2023-04-09T03:41:22;102076.27;;;4.53;84.23
76229;BME280;65021;53.174;18.160;2023-04-09T03:43:47;102079.44;;;4.54;84.04
76229;BME280;65021;53.174;18.160;2023-04-09T03:46:14;102079.80;;;4.56;84.03
76229;BME280;65021;53.174;18.160;2023-04-09T03:48:41;102078.98;;;4.56;84.11
76229;BME280;65021;53.174;18.160;2023-04-09T03:51:13;102074.02;;;4.58;84.90
76229;BME280;65021;53.174;18.160;2023-04-09T03:53:40;102077.36;;;4.58;84.71
76229;BME280;65021;53.174;18.160;2023-04-09T03:56:07;102076.57;;;4.58;84.84
76229;BME280;65021;53.174;18.160;2023-04-09T03:58:33;102067.22;;;4.59;84.60
76229;BME280;65021;53.174;18.160;2023-04-09T04:00:59;102077.52;;;4.61;84.50
76229;BME280;65021;53.174;18.160;2023-04-09T04:03:27;102069.06;;;4.61;85.53
76229;BME280;65021;53.174;18.160;2023-04-09T04:05:53;102072.20;;;4.61;85.04
76229;BME280;65021;53.174;18.160;2023-04-09T04:08:18;102076.06;;;4.62;85.24
76229;BME280;65021;53.174;18.160;2023-04-09T04:10:45;102075.41;;;4.63;85.10
76229;BME280;65021;53.174;18.160;2023-04-09T04:13:10;102079.54;;;4.66;84.84
76229;BME280;65021;53.174;18.160;2023-04-09T04:15:40;102075.10;;;4.68;84.64
76229;BME280;65021;53.174;18.160;2023-04-09T04:18:09;102069.34;;;4.70;84.89
76229;BME280;65021;53.174;18.160;2023-04-09T04:20:36;102067.73;;;4.71;84.87
76229;BME280;65021;53.174;18.160;2023-04-09T04:23:03;102069.91;;;4.75;84.67
76229;BME280;65021;53.174;18.160;2023-04-09T04:25:29;102069.83;;;4.77;84.64
76229;BME280;65021;53.174;18.160;2023-04-09T04:27:56;102072.29;;;4.80;85.06
76229;BME280;65021;53.174;18.160;2023-04-09T04:30:22;102071.58;;;4.81;86.00
76229;BME280;65021;53.174;18.160;2023-04-09T04:32:48;102069.20;;;4.84;85.40
76229;BME280;65021;53.174;18.160;2023-04-09T04:35:15;102067.34;;;4.86;85.39
76229;BME280;65021;53.174;18.160;2023-04-09T04:37:41;102067.73;;;4.88;85.20
76229;BME280;65021;53.174;18.160;2023-04-09T04:40:07;102066.90;;;4.91;85.87
76229;BME280;65021;53.174;18.160;2023-04-09T04:42:34;102070.55;;;4.93;85.59
76229;BME280;65021;53.174;18.160;2023-04-09T04:45:00;102070.13;;;4.95;85.66
76229;BME280;65021;53.174;18.160;2023-04-09T04:47:26;102070.09;;;4.98;85.31
76229;BME280;65021;53.174;18.160;2023-04-09T04:49:52;102072.79;;;5.00;85.26
76229;BME280;65021;53.174;18.160;2023-04-09T04:52:18;102073.46;;;5.04;85.05
76229;BME280;65021;53.174;18.160;2023-04-09T04:54:44;102080.02;;;5.07;85.28
76229;BME280;65021;53.174;18.160;2023-04-09T04:57:10;102078.33;;;5.09;85.82
76229;BME280;65021;53.174;18.160;2023-04-09T04:59:37;102081.42;;;5.11;85.17
76229;BME280;65021;53.174;18.160;2023-04-09T05:02:05;102080.55;;;5.15;84.88
76229;BME280;65021;53.174;18.160;2023-04-09T05:04:31;102087.27;;;5.20;84.64
76229;BME280;65021;53.174;18.160;2023-04-09T05:06:57;102085.67;;;5.23;84.72
76229;BME280;65021;53.174;18.160;2023-04-09T05:09:23;102087.84;;;5.23;85.00
76229;BME280;65021;53.174;18.160;2023-04-09T05:11:49;102081.73;;;5.24;85.47
76229;BME280;65021;53.174;18.160;2023-04-09T05:14:15;102085.21;;;5.25;85.21
76229;BME280;65021;53.174;18.160;2023-04-09T05:16:41;102077.69;;;5.30;85.00
76229;BME280;65021;53.174;18.160;2023-04-09T05:19:07;102071.41;;;5.37;84.89
76229;BME280;65021;53.174;18.160;2023-04-09T05:21:33;102072.29;;;5.42;84.82
76229;BME280;65021;53.174;18.160;2023-04-09T05:23:59;102074.71;;;5.44;84.94
76229;BME280;65021;53.174;18.160;2023-04-09T05:26:25;102071.48;;;5.47;85.35
76229;BME280;65021;53.174;18.160;2023-04-09T05:28:52;102070.11;;;5.51;85.11
76229;BME280;65021;53.174;18.160;2023-04-09T05:31:18;102068.15;;;5.57;85.16
76229;BME280;65021;53.174;18.160;2023-04-09T05:33:44;102066.79;;;5.59;85.69
76229;BME280;65021;53.174;18.160;2023-04-09T05:36:23;102068.23;;;5.60;85.84
76229;BME280;65021;53.174;18.160;2023-04-09T05:38:48;102069.48;;;5.63;85.87
76229;BME280;65021;53.174;18.160;2023-04-09T05:41:14;102071.27;;;5.67;85.56
76229;BME280;65021;53.174;18.160;2023-04-09T05:43:40;102071.41;;;5.70;85.30
76229;BME280;65021;53.174;18.160;2023-04-09T05:46:07;102070.11;;;5.75;85.46
76229;BME280;65021;53.174;18.160;2023-04-09T05:48:36;102071.61;;;5.76;85.60
76229;BME280;65021;53.174;18.160;2023-04-09T05:51:02;102072.65;;;5.79;85.80
76229;BME280;65021;53.174;18.160;2023-04-09T05:53:28;102076.46;;;5.84;85.49
76229;BME280;65021;53.174;18.160;2023-04-09T05:55:54;102076.03;;;5.88;85.06
76229;BME280;65021;53.174;18.160;2023-04-09T05:58:20;102074.24;;;5.92;84.99
76229;BME280;65021;53.174;18.160;2023-04-09T06:00:46;102079.27;;;5.98;85.11
76229;BME280;65021;53.174;18.160;2023-04-09T06:03:12;102082.00;;;6.07;85.02
76229;BME280;65021;53.174;18.160;2023-04-09T06:05:38;102082.39;;;6.15;84.99
76229;BME280;65021;53.174;18.160;2023-04-09T06:08:04;102084.17;;;6.20;84.82
76229;BME280;65021;53.174;18.160;2023-04-09T06:10:33;102087.82;;;6.24;84.73
76229;BME280;65021;53.174;18.160;2023-04-09T06:12:59;102090.40;;;6.29;84.85
76229;BME280;65021;53.174;18.160;2023-04-09T06:15:25;102090.16;;;6.29;84.91
76229;BME280;65021;53.174;18.160;2023-04-09T06:17:51;102093.84;;;6.26;85.54
76229;BME280;65021;53.174;18.160;2023-04-09T06:20:17;102095.11;;;6.28;85.02
76229;BME280;65021;53.174;18.160;2023-04-09T06:22:42;102097.95;;;6.33;84.87
76229;BME280;65021;53.174;18.160;2023-04-09T06:25:08;102097.97;;;6.41;84.80
76229;BME280;65021;53.174;18.160;2023-04-09T06:27:37;102096.21;;;6.47;84.66
76229;BME280;65021;53.174;18.160;2023-04-09T06:30:04;102099.20;;;6.51;84.55
76229;BME280;65021;53.174;18.160;2023-04-09T06:32:30;102102.58;;;6.52;84.69
76229;BME280;65021;53.174;18.160;2023-04-09T06:34:56;102109.26;;;6.50;84.76
76229;BME280;65021;53.174;18.160;2023-04-09T06:37:22;102110.40;;;6.47;84.97
76229;BME280;65021;53.174;18.160;2023-04-09T06:39:48;102118.53;;;6.48;84.65
76229;BME280;65021;53.174;18.160;2023-04-09T06:42:14;102123.08;;;6.50;84.45
76229;BME280;65021;53.174;18.160;2023-04-09T06:44:40;102130.25;;;6.50;84.52
76229;BME280;65021;53.174;18.160;2023-04-09T06:47:06;102131.33;;;6.46;84.65
76229;BME280;65021;53.174;18.160;2023-04-09T06:49:33;102135.87;;;6.47;84.47
76229;BME280;65021;53.174;18.160;2023-04-09T06:52:02;102142.70;;;6.48;84.41
76229;BME280;65021;53.174;18.160;2023-04-09T06:54:28;102144.83;;;6.50;84.39
76229;BME280;65021;53.174;18.160;2023-04-09T06:56:54;102140.96;;;6.50;84.45
76229;BME280;65021;53.174;18.160;2023-04-09T06:59:20;102144.27;;;6.50;84.39
76229;BME280;65021;53.174;18.160;2023-04-09T07:01:46;102140.28;;;6.52;84.24
76229;BME280;65021;53.174;18.160;2023-04-09T07:04:12;102136.98;;;6.54;84.33
76229;BME280;65021;53.174;18.160;2023-04-09T07:06:38;102138.86;;;6.60;84.25
76229;BME280;65021;53.174;18.160;2023-04-09T07:09:05;102137.80;;;6.67;84.31
76229;BME280;65021;53.174;18.160;2023-04-09T07:11:31;102138.27;;;6.75;84.36
76229;BME280;65021;53.174;18.160;2023-04-09T07:13:58;102146.60;;;6.82;84.22
76229;BME280;65021;53.174;18.160;2023-04-09T07:16:24;102146.36;;;6.91;83.96
76229;BME280;65021;53.174;18.160;2023-04-09T07:18:50;102141.86;;;6.95;83.80
76229;BME280;65021;53.174;18.160;2023-04-09T07:21:16;102145.11;;;7.00;83.85
76229;BME280;65021;53.174;18.160;2023-04-09T07:23:42;102145.02;;;7.09;83.65
76229;BME280;65021;53.174;18.160;2023-04-09T07:26:08;102137.51;;;7.19;83.51
76229;BME280;65021;53.174;18.160;2023-04-09T07:28:35;102134.38;;;7.30;83.60
76229;BME280;65021;53.174;18.160;2023-04-09T07:31:01;102131.69;;;7.39;83.28
76229;BME280;65021;53.174;18.160;2023-04-09T07:33:30;102137.45;;;7.40;83.11
76229;BME280;65021;53.174;18.160;2023-04-09T07:35:56;102139.00;;;7.50;83.27
76229;BME280;65021;53.174;18.160;2023-04-09T07:38:22;102140.07;;;7.54;82.67
76229;BME280;65021;53.174;18.160;2023-04-09T07:40:48;102138.98;;;7.64;82.80
76229;BME280;65021;53.174;18.160;2023-04-09T07:43:14;102140.74;;;7.66;82.44
76229;BME280;65021;53.174;18.160;2023-04-09T07:45:40;102141.11;;;7.79;82.64
76229;BME280;65021;53.174;18.160;2023-04-09T07:48:06;102137.95;;;7.92;82.57
76229;BME280;65021;53.174;18.160;2023-04-09T07:50:33;102146.80;;;8.01;82.27
76229;BME280;65021;53.174;18.160;2023-04-09T07:52:59;102148.36;;;8.13;81.75
76229;BME280;65021;53.174;18.160;2023-04-09T07:55:25;102149.76;;;8.21;81.87
76229;BME280;65021;53.174;18.160;2023-04-09T07:57:51;102147.26;;;8.32;82.33
76229;BME280;65021;53.174;18.160;2023-04-09T08:00:18;102145.55;;;8.39;81.99
76229;BME280;65021;53.174;18.160;2023-04-09T08:02:43;102148.39;;;8.47;81.81
76229;BME280;65021;53.174;18.160;2023-04-09T08:05:10;102148.27;;;8.39;81.08
76229;BME280;65021;53.174;18.160;2023-04-09T08:07:36;102139.16;;;8.36;81.52
76229;BME280;65021;53.174;18.160;2023-04-09T08:10:03;102144.17;;;8.38;81.68
76229;BME280;65021;53.174;18.160;2023-04-09T08:12:29;102142.77;;;8.43;81.51
76229;BME280;65021;53.174;18.160;2023-04-09T08:14:55;102145.40;;;8.51;81.53
76229;BME280;65021;53.174;18.160;2023-04-09T08:17:21;102148.56;;;8.61;81.54
76229;BME280;65021;53.174;18.160;2023-04-09T08:19:47;102147.33;;;8.58;80.72
76229;BME280;65021;53.174;18.160;2023-04-09T08:22:14;102147.60;;;8.54;81.33
76229;BME280;65021;53.174;18.160;2023-04-09T08:24:41;102145.89;;;8.53;80.80
76229;BME280;65021;53.174;18.160;2023-04-09T08:27:08;102147.23;;;8.56;80.89
76229;BME280;65021;53.174;18.160;2023-04-09T08:29:34;102152.42;;;8.54;81.07
76229;BME280;65021;53.174;18.160;2023-04-09T08:32:00;102150.88;;;8.53;81.40
76229;BME280;65021;53.174;18.160;2023-04-09T08:34:26;102152.23;;;8.57;81.48
76229;BME280;65021;53.174;18.160;2023-04-09T08:36:52;102151.93;;;8.62;81.57
76229;BME280;65021;53.174;18.160;2023-04-09T08:39:18;102151.59;;;8.62;81.13
76229;BME280;65021;53.174;18.160;2023-04-09T08:41:45;102152.83;;;8.58;80.97
76229;BME280;65021;53.174;18.160;2023-04-09T08:44:12;102152.44;;;8.63;81.31
76229;BME280;65021;53.174;18.160;2023-04-09T08:46:39;102148.94;;;8.68;81.42
76229;BME280;65021;53.174;18.160;2023-04-09T08:49:04;102146.39;;;8.86;81.25
76229;BME280;65021;53.174;18.160;2023-04-09T08:51:33;102143.63;;;9.00;80.90
76229;BME280;65021;53.174;18.160;2023-04-09T08:54:00;102143.52;;;9.08;80.65
76229;BME280;65021;53.174;18.160;2023-04-09T08:56:26;102145.15;;;9.16;80.39
76229;BME280;65021;53.174;18.160;2023-04-09T08:58:54;102139.02;;;9.20;80.60
76229;BME280;65021;53.174;18.160;2023-04-09T09:04:03;102134.27;;;9.39;80.30
76229;BME280;65021;53.174;18.160;2023-04-09T09:06:32;102133.95;;;9.51;80.03
76229;BME280;65021;53.174;18.160;2023-04-09T09:09:15;102133.77;;;9.60;79.98
76229;BME280;65021;53.174;18.160;2023-04-09T09:11:43;102132.56;;;9.64;79.67
76229;BME280;65021;53.174;18.160;2023-04-09T09:14:14;102135.41;;;9.68;79.73
76229;BME280;65021;53.174;18.160;2023-04-09T09:16:43;102135.34;;;9.77;79.40
76229;BME280;65021;53.174;18.160;2023-04-09T09:19:28;102136.80;;;9.86;79.16
76229;BME280;65021;53.174;18.160;2023-04-09T09:21:55;102138.17;;;9.90;78.73
76229;BME280;65021;53.174;18.160;2023-04-09T09:24:22;102141.05;;;9.97;79.05
76229;BME280;65021;53.174;18.160;2023-04-09T09:26:48;102137.71;;;10.07;78.49
76229;BME280;65021;53.174;18.160;2023-04-09T09:29:14;102132.93;;;10.17;77.86
76229;BME280;65021;53.174;18.160;2023-04-09T09:31:47;102134.73;;;10.27;77.11
76229;BME280;65021;53.174;18.160;2023-04-09T09:34:18;102138.91;;;10.36;76.52
76229;BME280;65021;53.174;18.160;2023-04-09T09:36:45;102135.42;;;10.46;77.10
76229;BME280;65021;53.174;18.160;2023-04-09T09:39:12;102134.89;;;10.66;76.27
76229;BME280;65021;53.174;18.160;2023-04-09T09:41:39;102135.98;;;10.84;76.11
76229;BME280;65021;53.174;18.160;2023-04-09T09:44:07;102135.98;;;11.01;75.40
76229;BME280;65021;53.174;18.160;2023-04-09T09:46:35;102133.34;;;11.19;75.65
76229;BME280;65021;53.174;18.160;2023-04-09T09:49:03;102131.23;;;11.37;73.45
76229;BME280;65021;53.174;18.160;2023-04-09T09:51:32;102130.41;;;11.44;74.37
76229;BME280;65021;53.174;18.160;2023-04-09T09:53:58;102131.28;;;11.66;74.47
76229;BME280;65021;53.174;18.160;2023-04-09T09:56:31;102126.06;;;11.79;72.98
76229;BME280;65021;53.174;18.160;2023-04-09T09:59:05;102125.86;;;11.92;72.73
76229;BME280;65021;53.174;18.160;2023-04-09T10:01:33;102128.92;;;12.06;72.37
76229;BME280;65021;53.174;18.160;2023-04-09T10:04:01;102119.70;;;12.22;72.09
76229;BME280;65021;53.174;18.160;2023-04-09T10:06:29;102117.86;;;12.39;71.16
76229;BME280;65021;53.174;18.160;2023-04-09T10:09:03;102117.70;;;12.56;70.32
76229;BME280;65021;53.174;18.160;2023-04-09T10:11:35;102106.91;;;12.70;71.07
76229;BME280;65021;53.174;18.160;2023-04-09T10:14:02;102109.65;;;12.92;70.05
76229;BME280;65021;53.174;18.160;2023-04-09T10:16:28;102106.85;;;13.08;70.56
76229;BME280;65021;53.174;18.160;2023-04-09T10:18:56;102100.19;;;13.22;68.85
76229;BME280;65021;53.174;18.160;2023-04-09T10:21:56;102102.96;;;13.24;66.93
76229;BME280;65021;53.174;18.160;2023-04-09T10:24:24;102109.27;;;13.06;66.60
76229;BME280;65021;53.174;18.160;2023-04-09T10:26:53;102110.70;;;13.06;67.93
76229;BME280;65021;53.174;18.160;2023-04-09T10:29:25;102108.71;;;13.13;67.48
76229;BME280;65021;53.174;18.160;2023-04-09T10:31:52;102106.00;;;13.12;67.19
76229;BME280;65021;53.174;18.160;2023-04-09T10:34:26;102104.63;;;13.17;66.83
76229;BME280;65021;53.174;18.160;2023-04-09T10:36:58;102109.58;;;13.16;66.22
76229;BME280;65021;53.174;18.160;2023-04-09T10:39:30;102103.15;;;13.21;66.34
76229;BME280;65021;53.174;18.160;2023-04-09T10:41:57;102104.13;;;13.18;65.38
76229;BME280;65021;53.174;18.160;2023-04-09T10:44:27;102108.38;;;13.05;65.34
76229;BME280;65021;53.174;18.160;2023-04-09T10:46:57;102103.20;;;13.07;66.34
76229;BME280;65021;53.174;18.160;2023-04-09T10:49:25;102104.14;;;13.13;65.66
76229;BME280;65021;53.174;18.160;2023-04-09T10:51:53;102107.30;;;13.10;64.88
76229;BME280;65021;53.174;18.160;2023-04-09T10:59:37;102110.14;;;13.10;65.43
76229;BME280;65021;53.174;18.160;2023-04-09T11:02:08;102113.81;;;13.12;65.09
76229;BME280;65021;53.174;18.160;2023-04-09T11:05:06;102112.45;;;13.11;65.75
76229;BME280;65021;53.174;18.160;2023-04-09T11:07:39;102117.32;;;13.22;65.29
76229;BME280;65021;53.174;18.160;2023-04-09T11:10:08;102109.60;;;13.37;65.67
76229;BME280;65021;53.174;18.160;2023-04-09T11:12:34;102104.30;;;13.48;64.95
76229;BME280;65021;53.174;18.160;2023-04-09T11:15:00;102104.30;;;13.60;64.73
76229;BME280;65021;53.174;18.160;2023-04-09T11:17:26;102105.23;;;13.66;64.57
76229;BME280;65021;53.174;18.160;2023-04-09T11:19:52;102106.38;;;13.77;64.40
76229;BME280;65021;53.174;18.160;2023-04-09T11:22:18;102107.72;;;13.77;64.20
76229;BME280;65021;53.174;18.160;2023-04-09T11:24:45;102104.64;;;13.83;63.98
76229;BME280;65021;53.174;18.160;2023-04-09T11:27:14;102101.42;;;13.92;63.75
76229;BME280;65021;53.174;18.160;2023-04-09T11:29:40;102102.66;;;13.96;63.29
76229;BME280;65021;53.174;18.160;2023-04-09T11:32:06;102101.38;;;13.95;63.09
76229;BME280;65021;53.174;18.160;2023-04-09T11:34:32;102102.79;;;13.98;63.10
76229;BME280;65021;53.174;18.160;2023-04-09T11:36:58;102100.64;;;14.05;63.93
76229;BME280;65021;53.174;18.160;2023-04-09T11:39:31;102100.30;;;14.10;62.22
76229;BME280;65021;53.174;18.160;2023-04-09T11:42:01;102101.42;;;13.99;62.75
76229;BME280;65021;53.174;18.160;2023-04-09T11:44:27;102096.33;;;14.06;62.81
76229;BME280;65021;53.174;18.160;2023-04-09T11:46:53;102101.98;;;14.15;62.67
76229;BME280;65021;53.174;18.160;2023-04-09T11:49:19;102100.29;;;14.20;62.57
76229;BME280;65021;53.174;18.160;2023-04-09T11:51:45;102101.23;;;14.14;62.34
76229;BME280;65021;53.174;18.160;2023-04-09T11:54:11;102097.16;;;14.04;62.26
76229;BME280;65021;53.174;18.160;2023-04-09T11:56:37;102097.23;;;13.99;62.44
76229;BME280;65021;53.174;18.160;2023-04-09T11:59:03;102099.15;;;13.98;62.18
76229;BME280;65021;53.174;18.160;2023-04-09T12:01:30;102097.70;;;14.01;63.01
76229;BME280;65021;53.174;18.160;2023-04-09T12:03:57;102098.27;;;14.11;62.77
76229;BME280;65021;53.174;18.160;2023-04-09T12:06:25;102101.77;;;14.19;62.27
76229;BME280;65021;53.174;18.160;2023-04-09T12:08:53;102099.36;;;14.13;61.91
76229;BME280;65021;53.174;18.160;2023-04-09T12:11:26;102098.63;;;14.10;61.96
76229;BME280;65021;53.174;18.160;2023-04-09T12:14:03;102096.50;;;13.93;61.55
76229;BME280;65021;53.174;18.160;2023-04-09T12:16:31;102095.92;;;13.83;61.98
76229;BME280;65021;53.174;18.160;2023-04-09T12:19:07;102099.60;;;13.80;62.26
76229;BME280;65021;53.174;18.160;2023-04-09T12:21:52;102093.15;;;13.81;62.50
76229;BME280;65021;53.174;18.160;2023-04-09T12:24:24;102093.45;;;13.92;62.61
76229;BME280;65021;53.174;18.160;2023-04-09T12:26:51;102092.14;;;13.98;62.27
76229;BME280;65021;53.174;18.160;2023-04-09T12:29:19;102091.06;;;13.89;61.61
76229;BME280;65021;53.174;18.160;2023-04-09T12:31:46;102086.30;;;13.68;62.31
76229;BME280;65021;53.174;18.160;2023-04-09T12:34:12;102089.54;;;13.61;62.39
76229;BME280;65021;53.174;18.160;2023-04-09T12:36:39;102088.55;;;13.56;62.44
76229;BME280;65021;53.174;18.160;2023-04-09T12:39:08;102086.61;;;13.62;62.50
76229;BME280;65021;53.174;18.160;2023-04-09T12:41:35;102087.48;;;13.63;62.58
76229;BME280;65021;53.174;18.160;2023-04-09T12:44:01;102088.33;;;13.54;62.26
76229;BME280;65021;53.174;18.160;2023-04-09T12:46:27;102077.92;;;13.48;62.64
76229;BME280;65021;53.174;18.160;2023-04-09T12:48:53;102079.05;;;13.47;62.69
76229;BME280;65021;53.174;18.160;2023-04-09T12:51:19;102072.98;;;13.48;62.61
76229;BME280;65021;53.174;18.160;2023-04-09T12:53:45;102076.37;;;13.49;62.77
76229;BME280;65021;53.174;18.160;2023-04-09T12:56:11;102072.95;;;13.43;62.65
76229;BME280;65021;53.174;18.160;2023-04-09T12:58:37;102075.34;;;13.37;62.92
76229;BME280;65021;53.174;18.160;2023-04-09T13:01:04;102072.69;;;13.33;63.18
76229;BME280;65021;53.174;18.160;2023-04-09T13:03:30;102071.35;;;13.31;63.11
76229;BME280;65021;53.174;18.160;2023-04-09T13:05:56;102067.89;;;13.29;63.09